sensor_id;sensor_type;location;lat;lon;timestamp;P1;durP1;ratioP1;P2;durP2;ratioP2
18610;SDS011;9435;52.122;5.502;2023-04-24T00:01:39;4.38;;;1.90;;
18610;SDS011;9435;52.122;5.502;2023-04-24T00:04:07;4.95;;;2.30;;
18610;SDS011;9435;52.122;5.502;2023-04-24T00:06:36;4.05;;;2.33;;
18610;SDS011;9435;52.122;5.502;2023-04-24T00:09:03;4.10;;;2.65;;
18610;SDS011;9435;52.122;5.502;2023-04-24T00:11:31;6.38;;;3.38;;
18610;SDS011;9435;52.122;5.502;2023-04-24T00:13:58;7.18;;;3.90;;
18610;SDS011;9435;52.122;5.502;2023-04-24T00:16:25;7.90;;;4.95;;
18610;SDS011;9435;52.122;5.502;2023-04-24T00:18:53;8.90;;;5.45;;
18610;SDS011;9435;52.122;5.502;2023-04-24T00:21:20;8.75;;;5.18;;
18610;SDS011;9435;52.122;5.502;2023-04-24T00:23:50;8.68;;;5.93;;
18610;SDS011;9435;52.122;5.502;2023-04-24T00:26:17;9.90;;;6.10;;
18610;SDS011;9435;52.122;5.502;2023-04-24T00:28:44;9.07;;;6.55;;
18610;SDS011;9435;52.122;5.502;2023-04-24T00:31:12;14.25;;;6.88;;
18610;SDS011;9435;52.122;5.502;2023-04-24T00:33:39;9.20;;;6.63;;
18610;SDS011;9435;52.122;5.502;2023-04-24T00:36:07;10.38;;;6.80;;
18610;SDS011;9435;52.122;5.502;2023-04-24T00:38:34;11.77;;;6.90;;
18610;SDS011;9435;52.122;5.502;2023-04-24T00:41:01;12.70;;;7.57;;
18610;SDS011;9435;52.122;5.502;2023-04-24T00:43:28;10.75;;;6.80;;
18610;SDS011;9435;52.122;5.502;2023-04-24T00:45:55;8.90;;;6.72;;
18610;SDS011;9435;52.122;5.502;2023-04-24T00:48:24;10.98;;;6.72;;
18610;SDS011;9435;52.122;5.502;2023-04-24T00:50:52;9.90;;;6.65;;
18610;SDS011;9435;52.122;5.502;2023-04-24T00:53:21;10.55;;;7.05;;
18610;SDS011;9435;52.122;5.502;2023-04-24T00:55:48;10.45;;;7.03;;
18610;SDS011;9435;52.122;5.502;2023-04-24T00:58:15;8.98;;;6.60;;
18610;SDS011;9435;52.122;5.502;2023-04-24T01:00:42;13.60;;;6.88;;
18610;SDS011;9435;52.122;5.502;2023-04-24T01:03:10;11.43;;;7.22;;
18610;SDS011;9435;52.122;5.502;2023-04-24T01:05:38;10.68;;;7.03;;
18610;SDS011;9435;52.122;5.502;2023-04-24T01:08:05;9.48;;;6.72;;
18610;SDS011;9435;52.122;5.502;2023-04-24T01:10:34;12.18;;;7.53;;
18610;SDS011;9435;52.122;5.502;2023-04-24T01:13:02;14.20;;;8.10;;
18610;SDS011;9435;52.122;5.502;2023-04-24T01:15:29;15.23;;;8.82;;
18610;SDS011;9435;52.122;5.502;2023-04-24T01:17:56;13.60;;;8.45;;
18610;SDS011;9435;52.122;5.502;2023-04-24T01:20:23;14.30;;;8.65;;
18610;SDS011;9435;52.122;5.502;2023-04-24T01:22:53;15.85;;;8.43;;
18610;SDS011;9435;52.122;5.502;2023-04-24T01:25:21;14.55;;;8.70;;
18610;SDS011;9435;52.122;5.502;2023-04-24T01:27:48;13.15;;;8.50;;
18610;SDS011;9435;52.122;5.502;2023-04-24T01:30:16;14.75;;;8.73;;
18610;SDS011;9435;52.122;5.502;2023-04-24T01:32:43;15.98;;;8.65;;
18610;SDS011;9435;52.122;5.502;2023-04-24T01:35:11;17.42;;;9.02;;
18610;SDS011;9435;52.122;5.502;2023-04-24T01:37:38;18.08;;;9.13;;
18610;SDS011;9435;52.122;5.502;2023-04-24T01:40:08;15.40;;;9.07;;
18610;SDS011;9435;52.122;5.502;2023-04-24T01:42:35;15.10;;;9.50;;
18610;SDS011;9435;52.122;5.502;2023-04-24T01:45:03;14.32;;;9.40;;
18610;SDS011;9435;52.122;5.502;2023-04-24T01:47:31;16.85;;;9.65;;
18610;SDS011;9435;52.122;5.502;2023-04-24T01:49:58;20.40;;;10.23;;
18610;SDS011;9435;52.122;5.502;2023-04-24T01:52:25;16.52;;;10.35;;
18610;SDS011;9435;52.122;5.502;2023-04-24T01:54:54;18.15;;;10.82;;
18610;SDS011;9435;52.122;5.502;2023-04-24T01:57:22;18.52;;;11.60;;
18610;SDS011;9435;52.122;5.502;2023-04-24T01:59:50;18.52;;;10.25;;
18610;SDS011;9435;52.122;5.502;2023-04-24T02:02:17;21.45;;;10.77;;
18610;SDS011;9435;52.122;5.502;2023-04-24T02:04:46;19.17;;;10.77;;
18610;SDS011;9435;52.122;5.502;2023-04-24T02:07:13;18.00;;;10.48;;
18610;SDS011;9435;52.122;5.502;2023-04-24T02:09:40;15.80;;;8.95;;
18610;SDS011;9435;52.122;5.502;2023-04-24T02:12:07;16.35;;;8.82;;
18610;SDS011;9435;52.122;5.502;2023-04-24T02:14:35;12.88;;;8.13;;
18610;SDS011;9435;52.122;5.502;2023-04-24T02:17:02;12.38;;;7.15;;
18610;SDS011;9435;52.122;5.502;2023-04-24T02:19:30;12.45;;;6.82;;
18610;SDS011;9435;52.122;5.502;2023-04-24T02:21:57;11.80;;;6.57;;
18610;SDS011;9435;52.122;5.502;2023-04-24T02:24:24;12.68;;;7.47;;
18610;SDS011;9435;52.122;5.502;2023-04-24T02:26:51;12.68;;;7.72;;
18610;SDS011;9435;52.122;5.502;2023-04-24T02:29:18;14.32;;;8.25;;
18610;SDS011;9435;52.122;5.502;2023-04-24T02:31:46;13.90;;;8.57;;
18610;SDS011;9435;52.122;5.502;2023-04-24T02:34:13;15.00;;;8.85;;
18610;SDS011;9435;52.122;5.502;2023-04-24T02:36:41;13.68;;;8.45;;
18610;SDS011;9435;52.122;5.502;2023-04-24T02:39:08;15.82;;;8.85;;
18610;SDS011;9435;52.122;5.502;2023-04-24T02:41:35;15.77;;;8.57;;
18610;SDS011;9435;52.122;5.502;2023-04-24T02:44:02;16.48;;;8.75;;
18610;SDS011;9435;52.122;5.502;2023-04-24T02:46:29;15.95;;;8.70;;
18610;SDS011;9435;52.122;5.502;2023-04-24T02:48:58;14.75;;;9.23;;
18610;SDS011;9435;52.122;5.502;2023-04-24T02:51:25;14.55;;;9.02;;
18610;SDS011;9435;52.122;5.502;2023-04-24T02:53:52;14.70;;;8.98;;
18610;SDS011;9435;52.122;5.502;2023-04-24T02:56:19;17.25;;;9.10;;
18610;SDS011;9435;52.122;5.502;2023-04-24T02:58:46;16.48;;;9.40;;
18610;SDS011;9435;52.122;5.502;2023-04-24T03:01:13;17.65;;;9.10;;
18610;SDS011;9435;52.122;5.502;2023-04-24T03:03:40;15.05;;;9.23;;
18610;SDS011;9435;52.122;5.502;2023-04-24T03:06:08;15.85;;;9.30;;
18610;SDS011;9435;52.122;5.502;2023-04-24T03:08:35;15.18;;;8.90;;
18610;SDS011;9435;52.122;5.502;2023-04-24T03:11:03;16.40;;;9.10;;
18610;SDS011;9435;52.122;5.502;2023-04-24T03:13:30;14.85;;;8.45;;
18610;SDS011;9435;52.122;5.502;2023-04-24T03:15:57;15.20;;;9.00;;
18610;SDS011;9435;52.122;5.502;2023-04-24T03:18:24;15.70;;;8.68;;
18610;SDS011;9435;52.122;5.502;2023-04-24T03:20:51;16.42;;;8.50;;
18610;SDS011;9435;52.122;5.502;2023-04-24T03:23:20;15.75;;;8.00;;
18610;SDS011;9435;52.122;5.502;2023-04-24T03:25:47;15.07;;;8.43;;
18610;SDS011;9435;52.122;5.502;2023-04-24T03:28:14;13.52;;;7.78;;
18610;SDS011;9435;52.122;5.502;2023-04-24T03:30:41;15.73;;;8.30;;
18610;SDS011;9435;52.122;5.502;2023-04-24T03:33:08;16.13;;;8.52;;
18610;SDS011;9435;52.122;5.502;2023-04-24T03:35:35;16.02;;;8.57;;
18610;SDS011;9435;52.122;5.502;2023-04-24T03:38:02;15.77;;;9.15;;
18610;SDS011;9435;52.122;5.502;2023-04-24T03:40:31;16.52;;;8.85;;
18610;SDS011;9435;52.122;5.502;2023-04-24T03:42:59;17.20;;;9.45;;
18610;SDS011;9435;52.122;5.502;2023-04-24T03:45:26;17.65;;;8.88;;
18610;SDS011;9435;52.122;5.502;2023-04-24T03:47:53;18.75;;;9.45;;
18610;SDS011;9435;52.122;5.502;2023-04-24T03:50:20;18.02;;;9.40;;
18610;SDS011;9435;52.122;5.502;2023-04-24T03:52:47;17.83;;;9.50;;
18610;SDS011;9435;52.122;5.502;2023-04-24T03:55:14;16.20;;;9.35;;
18610;SDS011;9435;52.122;5.502;2023-04-24T03:57:43;14.77;;;8.43;;
18610;SDS011;9435;52.122;5.502;2023-04-24T04:00:10;15.63;;;8.50;;
18610;SDS011;9435;52.122;5.502;2023-04-24T04:02:39;14.05;;;7.78;;
18610;SDS011;9435;52.122;5.502;2023-04-24T04:05:06;12.35;;;7.40;;
18610;SDS011;9435;52.122;5.502;2023-04-24T04:07:33;13.70;;;7.00;;
18610;SDS011;9435;52.122;5.502;2023-04-24T04:10:00;10.57;;;6.22;;
18610;SDS011;9435;52.122;5.502;2023-04-24T04:12:28;9.82;;;5.85;;
18610;SDS011;9435;52.122;5.502;2023-04-24T04:14:56;10.05;;;6.15;;
18610;SDS011;9435;52.122;5.502;2023-04-24T04:17:23;10.55;;;5.70;;
18610;SDS011;9435;52.122;5.502;2023-04-24T04:19:50;11.77;;;6.30;;
18610;SDS011;9435;52.122;5.502;2023-04-24T04:22:17;11.43;;;5.63;;
18610;SDS011;9435;52.122;5.502;2023-04-24T04:24:45;10.10;;;5.78;;
18610;SDS011;9435;52.122;5.502;2023-04-24T04:27:12;10.75;;;5.78;;
18610;SDS011;9435;52.122;5.502;2023-04-24T04:29:39;11.15;;;5.88;;
18610;SDS011;9435;52.122;5.502;2023-04-24T04:32:08;9.20;;;5.72;;
18610;SDS011;9435;52.122;5.502;2023-04-24T04:34:35;8.85;;;5.45;;
18610;SDS011;9435;52.122;5.502;2023-04-24T04:37:04;10.77;;;5.72;;
18610;SDS011;9435;52.122;5.502;2023-04-24T04:39:31;10.20;;;6.15;;
18610;SDS011;9435;52.122;5.502;2023-04-24T04:41:58;12.05;;;5.63;;
18610;SDS011;9435;52.122;5.502;2023-04-24T04:44:25;9.40;;;5.57;;
18610;SDS011;9435;52.122;5.502;2023-04-24T04:46:55;9.50;;;5.18;;
18610;SDS011;9435;52.122;5.502;2023-04-24T04:49:25;9.02;;;5.35;;
18610;SDS011;9435;52.122;5.502;2023-04-24T04:51:53;9.80;;;5.15;;
18610;SDS011;9435;52.122;5.502;2023-04-24T04:54:20;9.20;;;5.15;;
18610;SDS011;9435;52.122;5.502;2023-04-24T04:56:49;7.30;;;4.55;;
18610;SDS011;9435;52.122;5.502;2023-04-24T04:59:16;9.40;;;5.18;;
18610;SDS011;9435;52.122;5.502;2023-04-24T05:01:43;8.48;;;4.82;;
18610;SDS011;9435;52.122;5.502;2023-04-24T05:04:10;6.97;;;4.53;;
18610;SDS011;9435;52.122;5.502;2023-04-24T05:06:38;10.57;;;4.97;;
18610;SDS011;9435;52.122;5.502;2023-04-24T05:09:05;9.07;;;5.07;;
18610;SDS011;9435;52.122;5.502;2023-04-24T05:11:32;9.82;;;5.32;;
18610;SDS011;9435;52.122;5.502;2023-04-24T05:14:00;9.82;;;5.35;;
18610;SDS011;9435;52.122;5.502;2023-04-24T05:16:29;10.68;;;5.88;;
18610;SDS011;9435;52.122;5.502;2023-04-24T05:18:56;11.27;;;5.88;;
18610;SDS011;9435;52.122;5.502;2023-04-24T05:21:23;12.75;;;6.00;;
18610;SDS011;9435;52.122;5.502;2023-04-24T05:23:53;11.80;;;6.45;;
18610;SDS011;9435;52.122;5.502;2023-04-24T05:26:20;12.32;;;6.55;;
18610;SDS011;9435;52.122;5.502;2023-04-24T05:28:48;13.38;;;6.63;;
18610;SDS011;9435;52.122;5.502;2023-04-24T05:31:15;13.65;;;6.10;;
18610;SDS011;9435;52.122;5.502;2023-04-24T05:33:42;10.05;;;5.45;;
18610;SDS011;9435;52.122;5.502;2023-04-24T05:36:10;11.45;;;6.10;;
18610;SDS011;9435;52.122;5.502;2023-04-24T05:38:37;11.93;;;6.25;;
18610;SDS011;9435;52.122;5.502;2023-04-24T05:41:05;11.48;;;5.85;;
18610;SDS011;9435;52.122;5.502;2023-04-24T05:43:32;12.35;;;5.95;;
18610;SDS011;9435;52.122;5.502;2023-04-24T05:45:59;13.80;;;6.65;;
18610;SDS011;9435;52.122;5.502;2023-04-24T05:48:26;13.73;;;6.20;;
18610;SDS011;9435;52.122;5.502;2023-04-24T05:50:57;12.73;;;6.30;;
18610;SDS011;9435;52.122;5.502;2023-04-24T05:53:24;13.82;;;6.05;;
18610;SDS011;9435;52.122;5.502;2023-04-24T05:55:53;13.27;;;6.32;;
18610;SDS011;9435;52.122;5.502;2023-04-24T05:58:21;12.70;;;6.30;;
18610;SDS011;9435;52.122;5.502;2023-04-24T06:00:48;14.93;;;6.30;;
18610;SDS011;9435;52.122;5.502;2023-04-24T06:03:15;13.15;;;6.13;;
18610;SDS011;9435;52.122;5.502;2023-04-24T06:05:42;14.35;;;6.68;;
18610;SDS011;9435;52.122;5.502;2023-04-24T06:08:09;13.73;;;6.63;;
18610;SDS011;9435;52.122;5.502;2023-04-24T06:10:36;12.82;;;6.40;;
18610;SDS011;9435;52.122;5.502;2023-04-24T06:13:03;14.45;;;6.40;;
18610;SDS011;9435;52.122;5.502;2023-04-24T06:15:32;13.38;;;6.30;;
18610;SDS011;9435;52.122;5.502;2023-04-24T06:17:59;14.70;;;6.57;;
18610;SDS011;9435;52.122;5.502;2023-04-24T06:20:26;13.90;;;6.53;;
18610;SDS011;9435;52.122;5.502;2023-04-24T06:22:53;13.93;;;6.35;;
18610;SDS011;9435;52.122;5.502;2023-04-24T06:25:24;12.35;;;5.10;;
18610;SDS011;9435;52.122;5.502;2023-04-24T06:27:51;9.85;;;4.05;;
18610;SDS011;9435;52.122;5.502;2023-04-24T06:30:18;8.23;;;3.28;;
18610;SDS011;9435;52.122;5.502;2023-04-24T06:32:47;5.25;;;2.70;;
18610;SDS011;9435;52.122;5.502;2023-04-24T06:35:14;3.13;;;1.77;;
18610;SDS011;9435;52.122;5.502;2023-04-24T06:37:41;4.90;;;1.95;;
18610;SDS011;9435;52.122;5.502;2023-04-24T06:40:09;3.90;;;1.90;;
18610;SDS011;9435;52.122;5.502;2023-04-24T06:42:37;3.83;;;1.50;;
18610;SDS011;9435;52.122;5.502;2023-04-24T06:45:10;4.95;;;1.70;;
18610;SDS011;9435;52.122;5.502;2023-04-24T06:47:37;1.90;;;1.23;;
18610;SDS011;9435;52.122;5.502;2023-04-24T06:50:06;6.05;;;3.33;;
18610;SDS011;9435;52.122;5.502;2023-04-24T06:52:34;10.75;;;5.15;;
18610;SDS011;9435;52.122;5.502;2023-04-24T06:55:01;15.27;;;8.05;;
18610;SDS011;9435;52.122;5.502;2023-04-24T06:57:29;17.65;;;8.20;;
18610;SDS011;9435;52.122;5.502;2023-04-24T06:59:56;21.55;;;10.15;;
18610;SDS011;9435;52.122;5.502;2023-04-24T07:02:23;23.50;;;10.25;;
18610;SDS011;9435;52.122;5.502;2023-04-24T07:04:50;24.52;;;11.48;;
18610;SDS011;9435;52.122;5.502;2023-04-24T07:07:19;22.08;;;11.18;;
18610;SDS011;9435;52.122;5.502;2023-04-24T07:09:46;22.77;;;11.65;;
18610;SDS011;9435;52.122;5.502;2023-04-24T07:12:13;25.15;;;11.88;;
18610;SDS011;9435;52.122;5.502;2023-04-24T07:14:42;24.02;;;11.52;;
18610;SDS011;9435;52.122;5.502;2023-04-24T07:17:09;23.65;;;11.82;;
18610;SDS011;9435;52.122;5.502;2023-04-24T07:19:38;25.75;;;12.32;;
18610;SDS011;9435;52.122;5.502;2023-04-24T07:22:05;25.48;;;13.13;;
18610;SDS011;9435;52.122;5.502;2023-04-24T07:24:33;25.77;;;13.07;;
18610;SDS011;9435;52.122;5.502;2023-04-24T07:27:00;32.20;;;14.15;;
18610;SDS011;9435;52.122;5.502;2023-04-24T07:29:28;30.92;;;13.23;;
18610;SDS011;9435;52.122;5.502;2023-04-24T07:31:55;28.70;;;13.32;;
18610;SDS011;9435;52.122;5.502;2023-04-24T07:34:22;29.77;;;13.05;;
18610;SDS011;9435;52.122;5.502;2023-04-24T07:36:49;25.83;;;13.27;;
18610;SDS011;9435;52.122;5.502;2023-04-24T07:39:16;26.80;;;12.57;;
18610;SDS011;9435;52.122;5.502;2023-04-24T07:41:45;27.67;;;12.52;;
18610;SDS011;9435;52.122;5.502;2023-04-24T07:44:12;29.25;;;12.48;;
18610;SDS011;9435;52.122;5.502;2023-04-24T07:46:39;26.23;;;12.00;;
18610;SDS011;9435;52.122;5.502;2023-04-24T07:49:07;25.85;;;12.05;;
18610;SDS011;9435;52.122;5.502;2023-04-24T07:51:34;26.73;;;11.57;;
18610;SDS011;9435;52.122;5.502;2023-04-24T07:54:03;24.67;;;11.75;;
18610;SDS011;9435;52.122;5.502;2023-04-24T07:56:31;26.80;;;11.65;;
18610;SDS011;9435;52.122;5.502;2023-04-24T07:59:00;27.02;;;11.30;;
18610;SDS011;9435;52.122;5.502;2023-04-24T08:01:27;27.00;;;11.88;;
18610;SDS011;9435;52.122;5.502;2023-04-24T08:03:54;27.30;;;11.88;;
18610;SDS011;9435;52.122;5.502;2023-04-24T08:06:21;23.10;;;10.80;;
18610;SDS011;9435;52.122;5.502;2023-04-24T08:08:49;27.58;;;11.55;;
18610;SDS011;9435;52.122;5.502;2023-04-24T08:11:16;29.92;;;12.57;;
18610;SDS011;9435;52.122;5.502;2023-04-24T08:13:43;26.08;;;11.95;;
18610;SDS011;9435;52.122;5.502;2023-04-24T08:16:12;21.10;;;11.18;;
18610;SDS011;9435;52.122;5.502;2023-04-24T08:18:39;26.27;;;11.93;;
18610;SDS011;9435;52.122;5.502;2023-04-24T08:21:06;19.92;;;10.43;;
18610;SDS011;9435;52.122;5.502;2023-04-24T08:23:33;24.73;;;9.43;;
18610;SDS011;9435;52.122;5.502;2023-04-24T08:26:00;18.20;;;8.10;;
18610;SDS011;9435;52.122;5.502;2023-04-24T08:28:28;21.60;;;7.70;;
18610;SDS011;9435;52.122;5.502;2023-04-24T08:30:56;21.45;;;7.88;;
18610;SDS011;9435;52.122;5.502;2023-04-24T08:33:24;23.40;;;6.85;;
18610;SDS011;9435;52.122;5.502;2023-04-24T08:35:52;19.77;;;6.55;;
18610;SDS011;9435;52.122;5.502;2023-04-24T08:38:19;16.95;;;5.25;;
18610;SDS011;9435;52.122;5.502;2023-04-24T08:40:46;18.75;;;5.97;;
18610;SDS011;9435;52.122;5.502;2023-04-24T08:43:14;16.33;;;5.43;;
18610;SDS011;9435;52.122;5.502;2023-04-24T08:45:42;21.77;;;6.35;;
18610;SDS011;9435;52.122;5.502;2023-04-24T08:48:09;24.02;;;6.82;;
18610;SDS011;9435;52.122;5.502;2023-04-24T08:50:39;20.15;;;6.85;;
18610;SDS011;9435;52.122;5.502;2023-04-24T08:53:08;19.00;;;6.13;;
18610;SDS011;9435;52.122;5.502;2023-04-24T08:55:35;18.95;;;6.05;;
18610;SDS011;9435;52.122;5.502;2023-04-24T08:58:04;20.33;;;5.70;;
18610;SDS011;9435;52.122;5.502;2023-04-24T09:00:31;20.02;;;5.03;;
18610;SDS011;9435;52.122;5.502;2023-04-24T09:02:59;22.88;;;5.07;;
18610;SDS011;9435;52.122;5.502;2023-04-24T09:05:27;19.58;;;4.45;;
18610;SDS011;9435;52.122;5.502;2023-04-24T09:07:56;17.80;;;3.95;;
18610;SDS011;9435;52.122;5.502;2023-04-24T09:10:24;19.63;;;3.65;;
18610;SDS011;9435;52.122;5.502;2023-04-24T09:12:53;16.55;;;3.30;;
18610;SDS011;9435;52.122;5.502;2023-04-24T09:15:21;15.20;;;3.15;;
18610;SDS011;9435;52.122;5.502;2023-04-24T09:17:48;15.02;;;3.10;;
18610;SDS011;9435;52.122;5.502;2023-04-24T09:20:16;17.83;;;3.42;;
18610;SDS011;9435;52.122;5.502;2023-04-24T09:22:43;16.20;;;2.78;;
18610;SDS011;9435;52.122;5.502;2023-04-24T09:25:13;12.75;;;3.10;;
18610;SDS011;9435;52.122;5.502;2023-04-24T09:27:43;12.25;;;3.15;;
18610;SDS011;9435;52.122;5.502;2023-04-24T09:30:12;14.27;;;3.20;;
18610;SDS011;9435;52.122;5.502;2023-04-24T09:32:39;16.40;;;3.13;;
18610;SDS011;9435;52.122;5.502;2023-04-24T09:35:07;12.15;;;3.00;;
18610;SDS011;9435;52.122;5.502;2023-04-24T09:37:37;19.90;;;3.10;;
18610;SDS011;9435;52.122;5.502;2023-04-24T09:40:13;17.98;;;3.08;;
18610;SDS011;9435;52.122;5.502;2023-04-24T09:42:44;9.25;;;2.63;;
18610;SDS011;9435;52.122;5.502;2023-04-24T09:45:12;10.02;;;2.90;;
18610;SDS011;9435;52.122;5.502;2023-04-24T09:47:40;13.50;;;2.90;;
18610;SDS011;9435;52.122;5.502;2023-04-24T09:50:11;12.20;;;3.00;;
18610;SDS011;9435;52.122;5.502;2023-04-24T09:52:40;14.45;;;3.10;;
18610;SDS011;9435;52.122;5.502;2023-04-24T09:57:55;12.48;;;3.22;;
18610;SDS011;9435;52.122;5.502;2023-04-24T10:00:26;13.68;;;2.65;;
18610;SDS011;9435;52.122;5.502;2023-04-24T10:02:57;11.95;;;2.72;;
18610;SDS011;9435;52.122;5.502;2023-04-24T10:05:27;10.55;;;2.45;;
18610;SDS011;9435;52.122;5.502;2023-04-24T10:07:56;8.48;;;2.20;;
18610;SDS011;9435;52.122;5.502;2023-04-24T10:10:24;11.70;;;2.30;;
18610;SDS011;9435;52.122;5.502;2023-04-24T10:12:53;9.85;;;2.10;;
18610;SDS011;9435;52.122;5.502;2023-04-24T10:15:21;8.10;;;2.08;;
18610;SDS011;9435;52.122;5.502;2023-04-24T10:17:49;8.43;;;2.60;;
18610;SDS011;9435;52.122;5.502;2023-04-24T10:20:19;10.30;;;2.20;;
18610;SDS011;9435;52.122;5.502;2023-04-24T10:22:47;8.93;;;2.20;;
18610;SDS011;9435;52.122;5.502;2023-04-24T10:25:19;8.23;;;2.15;;
18610;SDS011;9435;52.122;5.502;2023-04-24T10:27:47;8.27;;;2.10;;
18610;SDS011;9435;52.122;5.502;2023-04-24T10:30:16;11.48;;;2.40;;
18610;SDS011;9435;52.122;5.502;2023-04-24T10:32:44;10.43;;;2.20;;
18610;SDS011;9435;52.122;5.502;2023-04-24T10:35:13;12.73;;;2.38;;
18610;SDS011;9435;52.122;5.502;2023-04-24T10:37:42;7.82;;;1.70;;
18610;SDS011;9435;52.122;5.502;2023-04-24T10:40:16;10.27;;;1.90;;
18610;SDS011;9435;52.122;5.502;2023-04-24T10:42:46;9.30;;;1.95;;
18610;SDS011;9435;52.122;5.502;2023-04-24T10:45:19;6.95;;;1.60;;
18610;SDS011;9435;52.122;5.502;2023-04-24T10:47:56;3.80;;;1.30;;
18610;SDS011;9435;52.122;5.502;2023-04-24T10:50:26;5.60;;;1.30;;
18610;SDS011;9435;52.122;5.502;2023-04-24T10:52:55;4.80;;;1.20;;
18610;SDS011;9435;52.122;5.502;2023-04-24T10:55:42;2.67;;;1.00;;
18610;SDS011;9435;52.122;5.502;2023-04-24T10:58:10;6.15;;;1.05;;
18610;SDS011;9435;52.122;5.502;2023-04-24T11:00:39;5.00;;;1.00;;
18610;SDS011;9435;52.122;5.502;2023-04-24T11:03:12;6.82;;;1.33;;
18610;SDS011;9435;52.122;5.502;2023-04-24T11:05:55;5.38;;;0.93;;
18610;SDS011;9435;52.122;5.502;2023-04-24T11:08:24;3.35;;;0.90;;
18610;SDS011;9435;52.122;5.502;2023-04-24T11:10:59;3.30;;;0.95;;
18610;SDS011;9435;52.122;5.502;2023-04-24T11:16:44;5.70;;;1.02;;
18610;SDS011;9435;52.122;5.502;2023-04-24T11:19:18;3.55;;;1.10;;
18610;SDS011;9435;52.122;5.502;2023-04-24T11:21:49;8.00;;;1.42;;
18610;SDS011;9435;52.122;5.502;2023-04-24T11:24:25;5.93;;;1.20;;
18610;SDS011;9435;52.122;5.502;2023-04-24T11:26:54;6.68;;;1.23;;
18610;SDS011;9435;52.122;5.502;2023-04-24T11:29:21;5.82;;;1.30;;
18610;SDS011;9435;52.122;5.502;2023-04-24T11:31:50;4.57;;;1.38;;
18610;SDS011;9435;52.122;5.502;2023-04-24T11:34:17;5.05;;;1.27;;
18610;SDS011;9435;52.122;5.502;2023-04-24T11:36:45;7.07;;;1.42;;
18610;SDS011;9435;52.122;5.502;2023-04-24T11:39:13;5.75;;;1.00;;
18610;SDS011;9435;52.122;5.502;2023-04-24T11:41:40;6.05;;;1.17;;
18610;SDS011;9435;52.122;5.502;2023-04-24T11:44:08;5.47;;;1.30;;
18610;SDS011;9435;52.122;5.502;2023-04-24T11:46:36;5.13;;;1.02;;
18610;SDS011;9435;52.122;5.502;2023-04-24T11:49:06;5.05;;;1.08;;
18610;SDS011;9435;52.122;5.502;2023-04-24T11:51:33;5.78;;;1.20;;
18610;SDS011;9435;52.122;5.502;2023-04-24T11:54:01;4.93;;;1.15;;
18610;SDS011;9435;52.122;5.502;2023-04-24T11:56:28;3.58;;;0.70;;
18610;SDS011;9435;52.122;5.502;2023-04-24T11:58:55;4.68;;;1.00;;
18610;SDS011;9435;52.122;5.502;2023-04-24T12:01:22;3.92;;;0.80;;
18610;SDS011;9435;52.122;5.502;2023-04-24T12:03:49;2.13;;;0.80;;
18610;SDS011;9435;52.122;5.502;2023-04-24T12:06:26;1.80;;;0.63;;
18610;SDS011;9435;52.122;5.502;2023-04-24T12:08:53;3.38;;;0.80;;
18610;SDS011;9435;52.122;5.502;2023-04-24T12:11:22;4.50;;;0.70;;
18610;SDS011;9435;52.122;5.502;2023-04-24T12:13:50;3.55;;;0.60;;
18610;SDS011;9435;52.122;5.502;2023-04-24T12:16:17;3.78;;;0.63;;
18610;SDS011;9435;52.122;5.502;2023-04-24T12:18:45;4.70;;;0.60;;
18610;SDS011;9435;52.122;5.502;2023-04-24T12:21:15;2.28;;;0.75;;
18610;SDS011;9435;52.122;5.502;2023-04-24T12:23:47;2.97;;;0.65;;
18610;SDS011;9435;52.122;5.502;2023-04-24T12:26:16;2.95;;;0.80;;
18610;SDS011;9435;52.122;5.502;2023-04-24T12:28:46;3.25;;;0.73;;
18610;SDS011;9435;52.122;5.502;2023-04-24T12:31:15;3.22;;;0.82;;
18610;SDS011;9435;52.122;5.502;2023-04-24T12:33:42;4.80;;;0.88;;
18610;SDS011;9435;52.122;5.502;2023-04-24T12:36:10;6.82;;;1.50;;
18610;SDS011;9435;52.122;5.502;2023-04-24T12:38:38;5.25;;;1.13;;
18610;SDS011;9435;52.122;5.502;2023-04-24T12:41:11;6.30;;;1.17;;
18610;SDS011;9435;52.122;5.502;2023-04-24T12:43:39;8.38;;;1.23;;
18610;SDS011;9435;52.122;5.502;2023-04-24T12:46:17;6.68;;;1.23;;
18610;SDS011;9435;52.122;5.502;2023-04-24T12:48:44;8.52;;;1.38;;
18610;SDS011;9435;52.122;5.502;2023-04-24T12:51:11;6.50;;;1.02;;
18610;SDS011;9435;52.122;5.502;2023-04-24T12:53:38;4.00;;;1.20;;
18610;SDS011;9435;52.122;5.502;2023-04-24T12:56:05;7.20;;;1.30;;
18610;SDS011;9435;52.122;5.502;2023-04-24T12:58:34;7.10;;;1.35;;
18610;SDS011;9435;52.122;5.502;2023-04-24T13:01:01;5.35;;;1.50;;
18610;SDS011;9435;52.122;5.502;2023-04-24T13:03:28;7.25;;;1.40;;
18610;SDS011;9435;52.122;5.502;2023-04-24T13:05:55;8.57;;;1.40;;
18610;SDS011;9435;52.122;5.502;2023-04-24T13:08:22;7.63;;;1.45;;
18610;SDS011;9435;52.122;5.502;2023-04-24T13:10:49;12.30;;;2.10;;
18610;SDS011;9435;52.122;5.502;2023-04-24T13:13:17;13.57;;;1.95;;
18610;SDS011;9435;52.122;5.502;2023-04-24T13:15:45;12.00;;;1.90;;
18610;SDS011;9435;52.122;5.502;2023-04-24T13:18:12;10.40;;;2.17;;
18610;SDS011;9435;52.122;5.502;2023-04-24T13:20:39;12.20;;;2.33;;
18610;SDS011;9435;52.122;5.502;2023-04-24T13:23:06;10.00;;;2.08;;
18610;SDS011;9435;52.122;5.502;2023-04-24T13:25:34;13.70;;;2.35;;
18610;SDS011;9435;52.122;5.502;2023-04-24T13:28:02;15.85;;;2.35;;
18610;SDS011;9435;52.122;5.502;2023-04-24T13:30:29;11.43;;;2.15;;
18610;SDS011;9435;52.122;5.502;2023-04-24T13:32:58;12.63;;;2.53;;
18610;SDS011;9435;52.122;5.502;2023-04-24T13:35:25;13.93;;;2.50;;
18610;SDS011;9435;52.122;5.502;2023-04-24T13:37:52;13.02;;;2.50;;
18610;SDS011;9435;52.122;5.502;2023-04-24T13:40:19;14.15;;;2.58;;
18610;SDS011;9435;52.122;5.502;2023-04-24T13:42:46;16.02;;;2.78;;
18610;SDS011;9435;52.122;5.502;2023-04-24T13:45:13;15.55;;;2.78;;
18610;SDS011;9435;52.122;5.502;2023-04-24T13:47:41;11.52;;;2.20;;
18610;SDS011;9435;52.122;5.502;2023-04-24T13:50:11;10.95;;;2.30;;
18610;SDS011;9435;52.122;5.502;2023-04-24T13:52:38;11.77;;;2.00;;
18610;SDS011;9435;52.122;5.502;2023-04-24T13:55:06;13.07;;;2.25;;
18610;SDS011;9435;52.122;5.502;2023-04-24T13:57:33;12.88;;;2.33;;
18610;SDS011;9435;52.122;5.502;2023-04-24T14:00:00;8.60;;;2.25;;
18610;SDS011;9435;52.122;5.502;2023-04-24T14:02:29;9.55;;;2.35;;
18610;SDS011;9435;52.122;5.502;2023-04-24T14:04:56;9.05;;;2.67;;
18610;SDS011;9435;52.122;5.502;2023-04-24T14:07:24;12.57;;;2.70;;
18610;SDS011;9435;52.122;5.502;2023-04-24T14:09:51;10.52;;;2.47;;
18610;SDS011;9435;52.122;5.502;2023-04-24T14:12:18;10.27;;;2.38;;
18610;SDS011;9435;52.122;5.502;2023-04-24T14:14:46;14.68;;;2.72;;
18610;SDS011;9435;52.122;5.502;2023-04-24T14:17:14;12.40;;;2.78;;
18610;SDS011;9435;52.122;5.502;2023-04-24T14:19:41;12.05;;;2.70;;
18610;SDS011;9435;52.122;5.502;2023-04-24T14:22:08;10.50;;;2.38;;
18610;SDS011;9435;52.122;5.502;2023-04-24T14:24:37;14.13;;;2.63;;
18610;SDS011;9435;52.122;5.502;2023-04-24T14:27:04;8.50;;;2.17;;
18610;SDS011;9435;52.122;5.502;2023-04-24T14:29:31;12.05;;;2.63;;
18610;SDS011;9435;52.122;5.502;2023-04-24T14:31:58;12.88;;;3.00;;
18610;SDS011;9435;52.122;5.502;2023-04-24T14:34:25;13.55;;;3.08;;
18610;SDS011;9435;52.122;5.502;2023-04-24T14:36:52;12.98;;;3.03;;
18610;SDS011;9435;52.122;5.502;2023-04-24T14:39:19;12.82;;;2.65;;
18610;SDS011;9435;52.122;5.502;2023-04-24T14:41:48;14.43;;;3.00;;
18610;SDS011;9435;52.122;5.502;2023-04-24T14:44:15;12.23;;;2.78;;
18610;SDS011;9435;52.122;5.502;2023-04-24T14:46:42;14.15;;;2.92;;
18610;SDS011;9435;52.122;5.502;2023-04-24T14:49:09;12.95;;;3.03;;
18610;SDS011;9435;52.122;5.502;2023-04-24T14:51:37;12.60;;;3.00;;
18610;SDS011;9435;52.122;5.502;2023-04-24T14:54:05;10.75;;;3.20;;
18610;SDS011;9435;52.122;5.502;2023-04-24T14:56:32;11.65;;;3.08;;
18610;SDS011;9435;52.122;5.502;2023-04-24T14:59:01;12.57;;;3.20;;
18610;SDS011;9435;52.122;5.502;2023-04-24T15:01:29;14.50;;;3.17;;